Terminal Aerodrome Forecast
Issued by NWS

Home | Current Version | Previous Version | Text Only | Print | Product List | Glossary On
Versions: 1 2 3 4 5 6 7 8 9 10 11 12 13 14 15 16 17 18
588
FTUS45 KRIW 241726
TAFCPR
TAF
KCPR 241726Z 2418/2518 24013KT 6SM -SHRA OVC035
     FM242000 28016G26KT P6SM VCSH SCT025 BKN040
     FM250000 28010KT P6SM BKN050
     FM251300 27008KT P6SM SCT100=

USA.gov is the U.S. government's official web portal to all federal, state and local government web resources and services.